createdAt,value
2023-12-10T00:02:09.429Z,-10.79
2023-12-10T00:04:37.598Z,-10.92
2023-12-10T00:07:05.045Z,-10.79
2023-12-10T00:09:32.289Z,-10.91
2023-12-10T00:11:59.401Z,-10.63
2023-12-10T00:14:26.728Z,-10.64
2023-12-10T00:16:54.448Z,-10.72
2023-12-10T00:19:21.753Z,-11.11
2023-12-10T00:21:49.124Z,-11.00
2023-12-10T00:24:16.281Z,-10.90
2023-12-10T00:26:43.365Z,-10.71
2023-12-10T00:29:10.417Z,-10.59
2023-12-10T00:31:37.709Z,-10.49
2023-12-10T00:34:04.912Z,-10.62
2023-12-10T00:36:32.269Z,-10.47
2023-12-10T00:39:00.929Z,-10.36
2023-12-10T00:41:28.367Z,-10.50
2023-12-10T00:43:55.731Z,-10.31
2023-12-10T00:46:22.796Z,-10.68
2023-12-10T00:48:50.270Z,-10.65
2023-12-10T00:51:24.462Z,-10.44
2023-12-10T00:53:52.039Z,-10.30
2023-12-10T00:56:19.131Z,-10.33
2023-12-10T00:58:46.227Z,-10.28
2023-12-10T01:01:13.419Z,-10.27
2023-12-10T01:03:41.007Z,-10.36
2023-12-10T01:06:09.714Z,-10.43
2023-12-10T01:08:37.152Z,-10.13
2023-12-10T01:11:05.520Z,-10.06
2023-12-10T01:13:32.649Z,-10.26
2023-12-10T01:15:59.734Z,-10.11
2023-12-10T01:18:26.997Z,-10.25
2023-12-10T01:20:54.176Z,-10.22
2023-12-10T01:23:21.261Z,-10.05
2023-12-10T01:25:48.376Z,-10.19
2023-12-10T01:28:16.013Z,-10.25
2023-12-10T01:30:43.204Z,-10.25
2023-12-10T01:33:11.547Z,-10.46
2023-12-10T01:35:39.319Z,-10.27
2023-12-10T01:38:06.762Z,-10.10
2023-12-10T01:40:34.326Z,-10.17
2023-12-10T01:43:07.230Z,-10.48
2023-12-10T01:45:34.609Z,-10.42
2023-12-10T01:48:08.076Z,-10.50
2023-12-10T01:50:36.707Z,-10.60
2023-12-10T01:53:04.329Z,-10.64
2023-12-10T01:55:31.735Z,-10.66
2023-12-10T01:57:59.384Z,-10.73
2023-12-10T02:00:27.443Z,-10.49
2023-12-10T02:02:54.708Z,-10.54
2023-12-10T02:05:22.004Z,-10.76
2023-12-10T02:07:51.050Z,-10.45
2023-12-10T02:10:18.086Z,-10.53
2023-12-10T02:12:47.760Z,-10.59
2023-12-10T02:15:21.637Z,-10.39
2023-12-10T02:17:53.445Z,-10.15
2023-12-10T02:20:20.984Z,-10.41
2023-12-10T02:22:58.924Z,-10.42
2023-12-10T02:25:36.053Z,-10.17
2023-12-10T02:28:04.917Z,-10.05
2023-12-10T02:30:32.691Z,-10.08
2023-12-10T02:33:00.629Z,-10.27
2023-12-10T02:35:28.128Z,-10.18
2023-12-10T02:37:56.043Z,-10.02
2023-12-10T02:40:23.454Z,-10.10
2023-12-10T02:42:50.662Z,-9.91
2023-12-10T02:45:18.085Z,-9.89
2023-12-10T02:47:45.752Z,-9.89
2023-12-10T02:50:12.970Z,-10.01
2023-12-10T02:52:40.118Z,-9.99
2023-12-10T02:55:10.443Z,-9.92
2023-12-10T02:57:38.253Z,-9.88
2023-12-10T03:00:06.772Z,-9.77
2023-12-10T03:02:33.953Z,-9.99
2023-12-10T03:05:01.173Z,-9.91
2023-12-10T03:07:30.645Z,-9.84
2023-12-10T03:09:57.720Z,-9.82
2023-12-10T03:12:24.871Z,-9.65
2023-12-10T03:14:51.889Z,-9.86
2023-12-10T03:17:18.972Z,-9.73
2023-12-10T03:19:46.413Z,-9.75
2023-12-10T03:22:13.677Z,-9.84
2023-12-10T03:24:40.833Z,-9.86
2023-12-10T03:27:07.883Z,-9.82
2023-12-10T03:29:35.004Z,-9.73
2023-12-10T03:32:02.127Z,-9.60
2023-12-10T03:34:29.401Z,-9.68
2023-12-10T03:36:56.771Z,-9.77
2023-12-10T03:39:23.973Z,-10.07
2023-12-10T03:41:51.440Z,-9.92
2023-12-10T03:44:18.548Z,-9.80
2023-12-10T03:46:45.657Z,-9.96
2023-12-10T03:49:13.336Z,-10.04
2023-12-10T03:51:40.460Z,-9.80
2023-12-10T03:54:07.670Z,-9.70
2023-12-10T03:56:34.781Z,-9.48
2023-12-10T03:59:01.991Z,-9.43
2023-12-10T04:01:29.151Z,-9.49
2023-12-10T04:03:56.891Z,-9.53
2023-12-10T04:06:24.046Z,-9.74
2023-12-10T04:08:51.100Z,-10.02
2023-12-10T04:11:24.999Z,-9.96
2023-12-10T04:13:52.188Z,-10.49
2023-12-10T04:16:31.320Z,-10.18
2023-12-10T04:18:58.781Z,-10.29
2023-12-10T04:21:26.152Z,-10.53
2023-12-10T04:23:53.565Z,-10.61
2023-12-10T04:26:20.956Z,-10.52
2023-12-10T04:28:48.134Z,-10.15
2023-12-10T04:31:15.973Z,-10.06
2023-12-10T04:33:46.326Z,-10.02
2023-12-10T04:36:15.062Z,-10.01
2023-12-10T04:38:44.170Z,-10.06
2023-12-10T04:41:11.332Z,-9.99
2023-12-10T04:43:38.517Z,-10.14
2023-12-10T04:46:05.959Z,-9.99
2023-12-10T04:48:34.000Z,-9.98
2023-12-10T04:51:01.371Z,-10.10
2023-12-10T04:53:28.631Z,-10.05
2023-12-10T04:55:55.663Z,-10.12
2023-12-10T04:58:22.802Z,-9.81
2023-12-10T05:00:49.983Z,-9.93
2023-12-10T05:03:17.153Z,-9.69
2023-12-10T05:05:44.345Z,-9.56
2023-12-10T05:08:11.491Z,-9.46
2023-12-10T05:10:38.733Z,-9.49
2023-12-10T05:13:05.857Z,-9.39
2023-12-10T05:15:33.133Z,-9.40
2023-12-10T05:18:04.010Z,-9.34
2023-12-10T05:20:31.930Z,-9.46
2023-12-10T05:23:01.318Z,-9.43
2023-12-10T05:25:32.420Z,-9.40
2023-12-10T05:28:00.370Z,-9.62
2023-12-10T05:30:27.681Z,-9.60
2023-12-10T05:32:54.955Z,-9.50
2023-12-10T05:35:22.354Z,-9.40
2023-12-10T05:37:49.608Z,-9.55
2023-12-10T05:40:16.762Z,-9.78
2023-12-10T05:42:45.860Z,-9.65
2023-12-10T05:45:13.143Z,-9.60
2023-12-10T05:47:40.520Z,-9.61
2023-12-10T05:50:07.930Z,-9.66
2023-12-10T05:52:35.023Z,-9.63
2023-12-10T05:55:02.108Z,-9.68
2023-12-10T05:57:31.825Z,-9.73
2023-12-10T05:59:58.976Z,-9.63
2023-12-10T06:02:26.186Z,-9.63
2023-12-10T06:04:53.581Z,-9.89
2023-12-10T06:07:20.800Z,-9.65
2023-12-10T06:09:48.183Z,-9.46
2023-12-10T06:12:15.474Z,-9.34
2023-12-10T06:14:42.609Z,-9.49
2023-12-10T06:17:10.918Z,-9.46
2023-12-10T06:19:38.295Z,-9.80
2023-12-10T06:22:05.589Z,-9.67
2023-12-10T06:24:32.858Z,-9.71
2023-12-10T06:27:00.013Z,-9.60
2023-12-10T06:29:27.161Z,-9.56
2023-12-10T06:31:54.273Z,-9.47
2023-12-10T06:34:21.572Z,-9.59
2023-12-10T06:36:48.944Z,-9.64
2023-12-10T06:39:17.712Z,-9.91
2023-12-10T06:41:44.864Z,-9.81
2023-12-10T06:44:22.354Z,-9.69
2023-12-10T06:46:50.551Z,-9.90
2023-12-10T06:49:18.282Z,-9.81
2023-12-10T06:51:45.563Z,-9.75
2023-12-10T06:54:13.275Z,-9.81
2023-12-10T06:56:42.115Z,-9.71
2023-12-10T06:59:09.910Z,-9.65
2023-12-10T07:01:39.026Z,-9.81
2023-12-10T07:04:09.136Z,-9.87
2023-12-10T07:06:37.029Z,-9.77
2023-12-10T07:09:08.046Z,-10.18
2023-12-10T07:11:35.556Z,-9.92
2023-12-10T07:14:02.655Z,-9.91
2023-12-10T07:16:29.809Z,-9.65
2023-12-10T07:18:57.233Z,-9.35
2023-12-10T07:21:24.547Z,-9.62
2023-12-10T07:23:51.692Z,-9.53
2023-12-10T07:26:26.706Z,-9.47
2023-12-10T07:28:53.961Z,-9.37
2023-12-10T07:31:21.102Z,-9.25
2023-12-10T07:33:48.670Z,-9.25
2023-12-10T07:36:16.227Z,-9.47
2023-12-10T07:38:43.394Z,-9.50
2023-12-10T07:41:10.768Z,-9.31
2023-12-10T07:43:37.874Z,-9.47
2023-12-10T07:46:05.496Z,-9.74
2023-12-10T07:48:34.843Z,-9.88
2023-12-10T07:51:03.110Z,-9.89
2023-12-10T07:53:30.322Z,-9.55
2023-12-10T07:55:57.657Z,-9.69
2023-12-10T07:58:24.882Z,-9.85
2023-12-10T08:00:52.807Z,-10.07
2023-12-10T08:03:20.244Z,-10.22
2023-12-10T08:05:47.811Z,-10.12
2023-12-10T08:08:14.947Z,-10.06
2023-12-10T08:10:42.114Z,-10.16
2023-12-10T08:13:09.637Z,-10.06
2023-12-10T08:15:37.780Z,-10.19
2023-12-10T08:18:05.250Z,-10.14
2023-12-10T08:20:32.536Z,-10.35
2023-12-10T08:22:59.761Z,-10.23
2023-12-10T08:25:29.678Z,-10.07
2023-12-10T08:27:58.331Z,-10.08
2023-12-10T08:30:26.248Z,-10.19
2023-12-10T08:32:53.499Z,-10.38
2023-12-10T08:35:20.847Z,-10.39
2023-12-10T08:37:48.384Z,-10.28
2023-12-10T08:40:16.168Z,-10.01
2023-12-10T08:42:43.345Z,-9.92
2023-12-10T08:45:10.925Z,-9.64
2023-12-10T08:47:39.012Z,-9.52
2023-12-10T08:50:06.946Z,-9.61
2023-12-10T08:52:34.150Z,-9.88
2023-12-10T08:55:02.585Z,-9.92
2023-12-10T08:57:31.938Z,-10.07
2023-12-10T09:00:02.313Z,-9.77
2023-12-10T09:02:33.214Z,-9.75
2023-12-10T09:05:00.843Z,-9.72
2023-12-10T09:07:31.148Z,-9.80
2023-12-10T09:10:08.768Z,-9.74
2023-12-10T09:12:39.994Z,-9.40
2023-12-10T09:15:08.902Z,-9.62
2023-12-10T09:17:36.000Z,-9.85
2023-12-10T09:20:03.771Z,-9.56
2023-12-10T09:22:32.079Z,-9.52
2023-12-10T09:24:59.370Z,-9.72
2023-12-10T09:27:26.642Z,-9.65
2023-12-10T09:29:53.745Z,-9.87
2023-12-10T09:32:25.096Z,-9.70
2023-12-10T09:34:52.478Z,-9.76
2023-12-10T09:37:19.781Z,-9.73
2023-12-10T09:39:47.239Z,-9.81
2023-12-10T09:42:14.522Z,-9.79
2023-12-10T09:44:41.863Z,-9.75
2023-12-10T09:47:11.154Z,-9.70
2023-12-10T09:49:41.825Z,-9.78
2023-12-10T09:52:10.589Z,-9.71
2023-12-10T09:54:43.604Z,-9.50
2023-12-10T09:57:13.221Z,-9.27
2023-12-10T09:59:41.319Z,-9.19
2023-12-10T10:02:11.774Z,-9.07
2023-12-10T10:04:42.699Z,-8.87
2023-12-10T10:07:10.472Z,-8.86
2023-12-10T10:09:38.861Z,-9.05
2023-12-10T10:12:07.384Z,-9.14
2023-12-10T10:14:34.713Z,-8.80
2023-12-10T10:17:01.944Z,-8.57
2023-12-10T10:19:29.200Z,-8.56
2023-12-10T10:21:56.563Z,-8.34
2023-12-10T10:24:26.097Z,-8.82
2023-12-10T10:26:54.065Z,-8.92
2023-12-10T10:29:23.937Z,-8.81
2023-12-10T10:31:52.676Z,-8.70
2023-12-10T10:34:20.437Z,-8.75
2023-12-10T10:36:47.673Z,-8.82
2023-12-10T10:39:14.972Z,-8.67
2023-12-10T10:41:42.093Z,-8.85
2023-12-10T10:44:09.135Z,-8.62
2023-12-10T10:46:37.134Z,-8.54
2023-12-10T10:49:05.064Z,-8.42
2023-12-10T10:51:34.464Z,-8.95
2023-12-10T10:54:05.745Z,-8.97
2023-12-10T10:56:33.509Z,-8.99
2023-12-10T10:59:01.283Z,-8.85
2023-12-10T11:01:41.148Z,-8.69
2023-12-10T11:04:13.568Z,-8.64
2023-12-10T11:06:42.318Z,-8.59
2023-12-10T11:09:10.143Z,-8.53
2023-12-10T11:11:41.323Z,-8.40
2023-12-10T11:14:22.752Z,-8.56
2023-12-10T11:17:10.842Z,-8.54
2023-12-10T11:19:38.139Z,-8.83
2023-12-10T11:22:05.274Z,-9.11
2023-12-10T11:24:32.523Z,-9.05
2023-12-10T11:27:00.471Z,-9.00
2023-12-10T11:29:27.683Z,-9.14
2023-12-10T11:31:54.956Z,-9.08
2023-12-10T11:34:22.531Z,-8.97
2023-12-10T11:36:50.856Z,-9.13
2023-12-10T11:39:18.281Z,-9.14
2023-12-10T11:41:56.205Z,-9.09
2023-12-10T11:44:28.649Z,-8.93
2023-12-10T11:46:58.237Z,-8.64
2023-12-10T11:49:26.672Z,-8.50
2023-12-10T11:51:54.349Z,-8.68
2023-12-10T11:54:21.922Z,-8.87
2023-12-10T11:56:49.440Z,-8.96
2023-12-10T11:59:20.020Z,-8.92
2023-12-10T12:01:48.093Z,-8.94
2023-12-10T12:04:17.127Z,-9.01
2023-12-10T12:06:44.934Z,-8.92
2023-12-10T12:09:18.488Z,-8.86
2023-12-10T12:11:45.802Z,-8.83
2023-12-10T12:14:19.640Z,-8.88
2023-12-10T12:16:47.761Z,-8.88
2023-12-10T12:19:28.454Z,-8.93
2023-12-10T12:21:58.893Z,-9.05
2023-12-10T12:24:26.241Z,-8.87
2023-12-10T12:26:53.362Z,-8.80
2023-12-10T12:29:23.058Z,-8.99
2023-12-10T12:32:08.551Z,-8.93
2023-12-10T12:34:40.167Z,-9.08
2023-12-10T12:37:07.360Z,-9.14
2023-12-10T12:39:34.495Z,-9.03
2023-12-10T12:42:01.632Z,-8.98
2023-12-10T12:44:28.943Z,-9.21
2023-12-10T12:46:56.008Z,-9.12
2023-12-10T12:49:23.943Z,-9.10
2023-12-10T12:51:51.173Z,-9.03
2023-12-10T12:54:18.604Z,-8.94
2023-12-10T12:56:46.163Z,-8.81
2023-12-10T12:59:16.517Z,-8.63
2023-12-10T13:01:44.100Z,-8.61
2023-12-10T13:04:11.560Z,-8.60
2023-12-10T13:06:39.020Z,-8.59
2023-12-10T13:09:08.549Z,-8.57
2023-12-10T13:11:37.831Z,-8.79
2023-12-10T13:14:05.443Z,-8.80
2023-12-10T13:16:32.610Z,-8.83
2023-12-10T13:23:13.639Z,-8.94
2023-12-10T13:26:06.895Z,-9.14
2023-12-10T13:28:34.205Z,-9.26
2023-12-10T13:31:04.619Z,-9.22
2023-12-10T13:33:31.960Z,-9.23
2023-12-10T13:35:59.210Z,-9.28
2023-12-10T13:38:26.300Z,-9.00
2023-12-10T13:40:55.495Z,-9.13
2023-12-10T13:43:22.735Z,-8.92
2023-12-10T13:45:50.747Z,-8.98
2023-12-10T13:48:18.089Z,-9.00
2023-12-10T13:50:45.400Z,-9.10
2023-12-10T13:53:12.764Z,-9.09
2023-12-10T13:55:39.863Z,-9.10
2023-12-10T13:58:07.208Z,-8.99
2023-12-10T14:00:34.951Z,-8.84
2023-12-10T14:03:05.382Z,-8.91
2023-12-10T14:05:32.532Z,-9.09
2023-12-10T14:07:59.719Z,-8.99
2023-12-10T14:10:29.961Z,-8.88
2023-12-10T14:12:59.787Z,-8.75
2023-12-10T14:15:27.137Z,-8.76
2023-12-10T14:17:54.453Z,-8.77
2023-12-10T14:20:21.701Z,-8.57
2023-12-10T14:22:48.935Z,-8.61
2023-12-10T14:25:16.295Z,-8.84
2023-12-10T14:27:44.852Z,-8.72
2023-12-10T14:30:12.384Z,-8.74
2023-12-10T14:32:40.037Z,-8.71
2023-12-10T14:35:07.710Z,-8.73
2023-12-10T14:37:40.224Z,-8.71
2023-12-10T14:40:10.064Z,-8.70
2023-12-10T14:42:37.571Z,-8.75
2023-12-10T14:45:07.081Z,-8.69
2023-12-10T14:47:35.010Z,-8.81
2023-12-10T14:50:09.138Z,-8.97
2023-12-10T14:52:39.566Z,-8.93
2023-12-10T14:55:19.255Z,-8.94
2023-12-10T14:57:49.687Z,-8.89
2023-12-10T15:00:20.213Z,-9.09
2023-12-10T15:02:49.045Z,-9.02
2023-12-10T15:05:16.456Z,-8.98
2023-12-10T15:07:44.091Z,-8.91
2023-12-10T15:10:17.107Z,-8.86
2023-12-10T15:12:45.677Z,-8.72
2023-12-10T15:15:12.979Z,-8.66
2023-12-10T15:17:44.465Z,-8.62
2023-12-10T15:20:14.467Z,-8.47
2023-12-10T15:22:44.435Z,-8.52
2023-12-10T15:25:19.469Z,-8.70
2023-12-10T15:27:50.855Z,-8.75
2023-12-10T15:30:19.344Z,-8.67
2023-12-10T15:32:51.075Z,-8.71
2023-12-10T15:35:18.761Z,-8.54
2023-12-10T15:37:48.835Z,-8.60
2023-12-10T15:40:17.721Z,-8.68
2023-12-10T15:42:46.067Z,-8.82
2023-12-10T15:45:15.002Z,-8.66
2023-12-10T15:47:42.733Z,-8.53
2023-12-10T15:50:10.777Z,-8.45
2023-12-10T15:52:41.035Z,-8.53
2023-12-10T15:55:09.990Z,-8.46
2023-12-10T15:57:40.302Z,-8.37
2023-12-10T16:00:09.194Z,-8.44
2023-12-10T16:02:41.189Z,-8.57
2023-12-10T16:05:09.888Z,-8.58
2023-12-10T16:07:48.199Z,-8.71
2023-12-10T16:10:22.366Z,-8.88
2023-12-10T16:12:50.411Z,-8.86
2023-12-10T16:15:18.458Z,-8.68
2023-12-10T16:17:51.229Z,-8.64
2023-12-10T16:20:19.717Z,-8.56
2023-12-10T16:22:53.933Z,-8.55
2023-12-10T16:25:21.428Z,-8.54
2023-12-10T16:27:50.441Z,-8.48
2023-12-10T16:30:24.968Z,-8.50
2023-12-10T16:32:57.057Z,-8.47
2023-12-10T16:35:25.796Z,-8.52
2023-12-10T16:37:58.905Z,-8.48
2023-12-10T16:40:27.002Z,-8.49
2023-12-10T16:42:57.875Z,-8.53
2023-12-10T16:45:25.463Z,-8.43
2023-12-10T16:47:53.006Z,-8.39
2023-12-10T16:50:20.648Z,-8.42
2023-12-10T16:52:48.276Z,-8.40
2023-12-10T16:55:16.272Z,-8.24
2023-12-10T16:57:43.889Z,-8.28
2023-12-10T17:00:13.271Z,-8.31
2023-12-10T17:02:43.019Z,-8.23
2023-12-10T17:05:11.970Z,-8.23
2023-12-10T17:07:40.168Z,-8.20
2023-12-10T17:10:08.007Z,-8.29
2023-12-10T17:12:35.732Z,-8.17
2023-12-10T17:15:03.702Z,-8.30
2023-12-10T17:17:35.521Z,-8.22
2023-12-10T17:20:03.218Z,-8.06
2023-12-10T17:22:31.297Z,-8.02
2023-12-10T17:24:58.835Z,-8.05
2023-12-10T17:27:26.593Z,-7.98
2023-12-10T17:29:54.196Z,-8.00
2023-12-10T17:32:21.497Z,-8.25
2023-12-10T17:34:49.664Z,-8.21
2023-12-10T17:37:17.414Z,-8.40
2023-12-10T17:39:45.011Z,-8.52
2023-12-10T17:42:13.038Z,-8.63
2023-12-10T17:44:47.452Z,-8.56
2023-12-10T17:47:22.102Z,-8.29
2023-12-10T17:49:49.660Z,-8.20
2023-12-10T17:52:17.644Z,-8.14
2023-12-10T17:54:45.113Z,-8.09
2023-12-10T17:57:12.803Z,-8.13
2023-12-10T17:59:42.673Z,-8.19
2023-12-10T18:02:10.293Z,-8.33
2023-12-10T18:04:41.364Z,-8.42
2023-12-10T18:07:08.737Z,-8.47
2023-12-10T18:09:36.103Z,-8.45
2023-12-10T18:12:03.690Z,-8.57
2023-12-10T18:14:31.111Z,-8.69
2023-12-10T18:16:58.654Z,-8.61
2023-12-10T18:19:32.305Z,-8.61
2023-12-10T18:21:59.647Z,-8.51
2023-12-10T18:24:29.561Z,-8.61
2023-12-10T18:26:57.033Z,-8.44
2023-12-10T18:29:24.819Z,-8.30
2023-12-10T18:31:55.017Z,-8.39
2023-12-10T18:34:22.487Z,-8.53
2023-12-10T18:36:54.755Z,-8.35
2023-12-10T18:39:21.807Z,-8.46
2023-12-10T18:41:50.164Z,-8.51
2023-12-10T18:44:18.490Z,-8.28
2023-12-10T18:46:46.331Z,-8.20
2023-12-10T18:49:13.721Z,-8.36
2023-12-10T18:51:40.962Z,-8.37
2023-12-10T18:54:10.143Z,-8.15
2023-12-10T18:57:27.503Z,-8.14
2023-12-10T18:59:54.660Z,-8.14
2023-12-10T19:02:22.664Z,-8.10
2023-12-10T19:04:55.240Z,-8.18
2023-12-10T19:07:22.399Z,-8.31
2023-12-10T19:09:49.598Z,-8.19
2023-12-10T19:12:20.179Z,-8.31
2023-12-10T19:14:47.392Z,-8.32
2023-12-10T19:17:14.756Z,-8.29
2023-12-10T19:19:42.144Z,-8.17
2023-12-10T19:22:10.717Z,-8.31
2023-12-10T19:24:40.340Z,-8.23
2023-12-10T19:27:07.772Z,-8.39
2023-12-10T19:29:35.149Z,-8.33
2023-12-10T19:32:02.476Z,-8.36
2023-12-10T19:34:29.792Z,-8.30
2023-12-10T19:36:57.093Z,-8.15
2023-12-10T19:39:24.728Z,-8.04
2023-12-10T19:41:51.835Z,-8.17
2023-12-10T19:44:22.097Z,-8.31
2023-12-10T19:46:49.339Z,-8.29
2023-12-10T19:49:18.236Z,-8.45
2023-12-10T19:51:45.487Z,-8.24
2023-12-10T19:54:16.792Z,-8.27
2023-12-10T19:56:52.775Z,-8.24
2023-12-10T19:59:37.304Z,-8.30
2023-12-10T20:02:19.029Z,-8.28
2023-12-10T20:05:00.603Z,-8.10
2023-12-10T20:07:38.690Z,-8.28
2023-12-10T20:10:16.076Z,-8.24
2023-12-10T20:12:54.983Z,-8.24
2023-12-10T20:15:37.634Z,-8.42
2023-12-10T20:18:18.740Z,-8.26
2023-12-10T20:20:57.276Z,-8.31
2023-12-10T20:23:55.785Z,-8.24
2023-12-10T20:26:44.848Z,-8.09
2023-12-10T20:32:05.998Z,-8.28
2023-12-10T20:34:35.335Z,-8.17
2023-12-10T20:37:03.066Z,-8.09
2023-12-10T20:39:38.184Z,-8.04
2023-12-10T20:42:25.695Z,-8.26
2023-12-10T20:44:53.153Z,-8.14
2023-12-10T20:47:29.429Z,-8.20
2023-12-10T20:49:56.669Z,-8.09
2023-12-10T20:52:23.719Z,-8.03
2023-12-10T20:54:51.805Z,-7.88
2023-12-10T20:57:18.973Z,-8.15
2023-12-10T20:59:46.595Z,-8.28
2023-12-10T21:02:13.791Z,-8.16
2023-12-10T21:04:44.460Z,-8.03
2023-12-10T21:07:11.918Z,-7.95
2023-12-10T21:09:39.128Z,-8.05
2023-12-10T21:12:06.456Z,-8.03
2023-12-10T21:14:33.625Z,-7.92
2023-12-10T21:17:06.477Z,-8.10
2023-12-10T21:19:35.439Z,-8.03
2023-12-10T21:22:03.180Z,-7.86
2023-12-10T21:24:30.307Z,-7.74
2023-12-10T21:26:57.372Z,-7.72
2023-12-10T21:29:24.640Z,-7.88
2023-12-10T21:31:51.845Z,-7.79
2023-12-10T21:34:19.105Z,-7.71
2023-12-10T21:36:46.453Z,-7.68
2023-12-10T21:39:13.558Z,-7.77
2023-12-10T21:41:40.789Z,-7.78
2023-12-10T21:44:08.113Z,-7.80
2023-12-10T21:46:36.724Z,-7.62
2023-12-10T21:49:04.275Z,-7.69
2023-12-10T21:51:31.555Z,-7.83
2023-12-10T21:54:01.948Z,-7.96
2023-12-10T21:56:29.145Z,-7.76
2023-12-10T21:58:56.433Z,-7.60
2023-12-10T22:01:23.650Z,-7.81
2023-12-10T22:03:52.004Z,-7.90
2023-12-10T22:06:19.455Z,-7.87
2023-12-10T22:08:47.393Z,-7.87
2023-12-10T22:11:15.839Z,-8.00
2023-12-10T22:13:43.073Z,-8.06
2023-12-10T22:16:10.624Z,-7.98
2023-12-10T22:18:37.923Z,-7.99
2023-12-10T22:21:07.937Z,-7.95
2023-12-10T22:23:35.194Z,-7.88
2023-12-10T22:26:03.104Z,-7.96
2023-12-10T22:28:30.244Z,-7.83
2023-12-10T22:30:57.372Z,-7.89
2023-12-10T22:33:24.535Z,-7.87
2023-12-10T22:35:51.742Z,-7.77
2023-12-10T22:38:19.172Z,-7.68
2023-12-10T22:40:46.316Z,-7.65
2023-12-10T22:43:15.788Z,-7.71
2023-12-10T22:45:46.082Z,-7.82
2023-12-10T22:48:13.372Z,-7.71
2023-12-10T22:50:41.592Z,-7.80
2023-12-10T22:53:08.848Z,-7.86
2023-12-10T22:55:35.901Z,-7.78
2023-12-10T22:58:03.019Z,-7.81
2023-12-10T23:00:31.704Z,-7.63
2023-12-10T23:02:58.897Z,-7.50
2023-12-10T23:05:26.182Z,-7.56
2023-12-10T23:07:53.290Z,-7.65
2023-12-10T23:10:20.513Z,-7.77
2023-12-10T23:12:47.874Z,-7.84
2023-12-10T23:15:15.217Z,-7.87
2023-12-10T23:17:43.587Z,-7.84
2023-12-10T23:20:13.178Z,-7.77
2023-12-10T23:22:40.475Z,-7.93
2023-12-10T23:25:08.146Z,-8.06
2023-12-10T23:27:35.445Z,-8.07
2023-12-10T23:30:02.739Z,-7.89
2023-12-10T23:32:32.540Z,-7.89
2023-12-10T23:35:01.004Z,-7.79
2023-12-10T23:37:28.414Z,-7.77
2023-12-10T23:39:55.887Z,-7.69
2023-12-10T23:42:23.106Z,-7.81
2023-12-10T23:44:50.270Z,-7.89
2023-12-10T23:47:17.406Z,-7.87
2023-12-10T23:49:44.837Z,-7.74
2023-12-10T23:52:12.238Z,-7.69
2023-12-10T23:54:40.274Z,-7.78
2023-12-10T23:57:08.835Z,-7.63
2023-12-10T23:59:36.298Z,-7.83
